KPNE/PNE METAR and TAF weather

Enter ICAO airport designator
Station Type Date Time Source
KPNE METAR 2020/09/27 15:54 UTC NOAA

KPNE 271554Z 12003KT 10SM FEW016 OVC046 24/19 A3001 RMK AO2 SLP159 T02390189


Station Type Date Time Source
KPNE Decoded METAR 2020/09/27 15:54 UTC NOAA

N.E. PHILADELPHIA AIRPORT, PA, United States (KPNE) 40-05N 075-01W 28M
Sep 27, 2020 - 11:54 AM EDT / 2020.09.27 1554 UTC
Wind: from the ESE (120 degrees) at 3 MPH (3 KT):0
Visibility: 10 mile(s):0
Sky conditions: overcast
Temperature: 75.0 F (23.9 C)
Dew Point: 66.0 F (18.9 C)
Relative Humidity: 73%
Pressure (altimeter): 30.01 in. Hg (1016 hPa)
ob: KPNE 271554Z 12003KT 10SM FEW016 OVC046 24/19 A3001 RMK AO2 SLP159 T02390189
cycle: 16

Station Type Date Time Source
KPNE TAF 2020/09/27 14:33 UTC NOAA

TAF
AMD KPNE 271331Z 2714/2812 13005KT P6SM SCT006 OVC015
FM271700 11007KT P6SM BKN040
FM280100 VRB04KT P6SM BKN015
FM280500 VRB03KT 6SM BR OVC008

Example: see airport list